sensor_id;sensor_type;location;lat;lon;timestamp;P1;durP1;ratioP1;P2;durP2;ratioP2
8337;SDS011;4206;48.634;9.516;2022-08-04T00:01:54;1.60;;;1.50;;
8337;SDS011;4206;48.634;9.516;2022-08-04T00:04:25;1.53;;;1.20;;
8337;SDS011;4206;48.634;9.516;2022-08-04T00:06:59;2.57;;;1.80;;
8337;SDS011;4206;48.634;9.516;2022-08-04T00:09:33;2.77;;;1.43;;
8337;SDS011;4206;48.634;9.516;2022-08-04T00:12:02;1.50;;;1.33;;
8337;SDS011;4206;48.634;9.516;2022-08-04T00:14:33;1.30;;;1.20;;
8337;SDS011;4206;48.634;9.516;2022-08-04T00:17:02;2.17;;;1.37;;
8337;SDS011;4206;48.634;9.516;2022-08-04T00:19:32;7.67;;;1.83;;
8337;SDS011;4206;48.634;9.516;2022-08-04T00:22:05;1.53;;;1.00;;
8337;SDS011;4206;48.634;9.516;2022-08-04T00:24:34;7.57;;;1.50;;
8337;SDS011;4206;48.634;9.516;2022-08-04T00:27:01;2.00;;;1.33;;
8337;SDS011;4206;48.634;9.516;2022-08-04T00:29:27;1.33;;;1.20;;
8337;SDS011;4206;48.634;9.516;2022-08-04T00:31:54;2.40;;;1.50;;
8337;SDS011;4206;48.634;9.516;2022-08-04T00:34:20;2.57;;;1.20;;
8337;SDS011;4206;48.634;9.516;2022-08-04T00:36:50;2.10;;;1.20;;
8337;SDS011;4206;48.634;9.516;2022-08-04T00:39:18;1.43;;;1.20;;
8337;SDS011;4206;48.634;9.516;2022-08-04T00:52:36;5.47;;;1.50;;
8337;SDS011;4206;48.634;9.516;2022-08-04T01:00:43;3.70;;;1.30;;
8337;SDS011;4206;48.634;9.516;2022-08-04T01:06:05;2.13;;;1.27;;
8337;SDS011;4206;48.634;9.516;2022-08-04T01:11:48;3.10;;;1.30;;
8337;SDS011;4206;48.634;9.516;2022-08-04T01:14:33;4.30;;;1.37;;
8337;SDS011;4206;48.634;9.516;2022-08-04T01:17:19;4.53;;;1.30;;
8337;SDS011;4206;48.634;9.516;2022-08-04T01:28:02;2.37;;;1.30;;
8337;SDS011;4206;48.634;9.516;2022-08-04T01:30:34;1.50;;;1.37;;
8337;SDS011;4206;48.634;9.516;2022-08-04T01:33:07;2.43;;;1.50;;
8337;SDS011;4206;48.634;9.516;2022-08-04T01:35:39;8.70;;;1.63;;
8337;SDS011;4206;48.634;9.516;2022-08-04T01:38:16;4.10;;;1.63;;
8337;SDS011;4206;48.634;9.516;2022-08-04T01:40:45;4.07;;;1.40;;
8337;SDS011;4206;48.634;9.516;2022-08-04T01:43:15;2.30;;;1.43;;
8337;SDS011;4206;48.634;9.516;2022-08-04T01:45:42;1.97;;;1.30;;
8337;SDS011;4206;48.634;9.516;2022-08-04T01:48:13;4.13;;;1.20;;
8337;SDS011;4206;48.634;9.516;2022-08-04T01:50:40;1.93;;;1.40;;
8337;SDS011;4206;48.634;9.516;2022-08-04T01:53:08;2.00;;;1.13;;
8337;SDS011;4206;48.634;9.516;2022-08-04T01:55:34;1.80;;;1.17;;
8337;SDS011;4206;48.634;9.516;2022-08-04T01:58:02;1.87;;;1.50;;
8337;SDS011;4206;48.634;9.516;2022-08-04T02:00:29;1.70;;;1.60;;
8337;SDS011;4206;48.634;9.516;2022-08-04T02:02:55;4.20;;;1.67;;
8337;SDS011;4206;48.634;9.516;2022-08-04T02:05:22;2.20;;;1.80;;
8337;SDS011;4206;48.634;9.516;2022-08-04T02:10:29;7.40;;;1.83;;
8337;SDS011;4206;48.634;9.516;2022-08-04T02:20:47;1.60;;;1.50;;
8337;SDS011;4206;48.634;9.516;2022-08-04T02:23:37;2.30;;;1.50;;
8337;SDS011;4206;48.634;9.516;2022-08-04T02:26:03;2.70;;;1.17;;
8337;SDS011;4206;48.634;9.516;2022-08-04T02:33:44;3.57;;;1.60;;
8337;SDS011;4206;48.634;9.516;2022-08-04T02:36:14;6.50;;;1.27;;
8337;SDS011;4206;48.634;9.516;2022-08-04T02:41:15;9.80;;;1.70;;
8337;SDS011;4206;48.634;9.516;2022-08-04T02:43:42;3.63;;;1.60;;
8337;SDS011;4206;48.634;9.516;2022-08-04T02:46:12;4.03;;;1.53;;
8337;SDS011;4206;48.634;9.516;2022-08-04T02:48:40;1.50;;;1.40;;
8337;SDS011;4206;48.634;9.516;2022-08-04T02:51:10;4.03;;;1.27;;
8337;SDS011;4206;48.634;9.516;2022-08-04T02:53:38;4.10;;;1.57;;
8337;SDS011;4206;48.634;9.516;2022-08-04T02:56:06;2.33;;;1.63;;
8337;SDS011;4206;48.634;9.516;2022-08-04T02:58:34;3.30;;;1.50;;
8337;SDS011;4206;48.634;9.516;2022-08-04T03:01:01;4.43;;;1.57;;
8337;SDS011;4206;48.634;9.516;2022-08-04T03:03:37;2.17;;;1.30;;
8337;SDS011;4206;48.634;9.516;2022-08-04T03:20:11;4.53;;;2.10;;
8337;SDS011;4206;48.634;9.516;2022-08-04T03:33:59;5.77;;;2.17;;
8337;SDS011;4206;48.634;9.516;2022-08-04T03:42:19;4.57;;;3.13;;
8337;SDS011;4206;48.634;9.516;2022-08-04T03:50:23;5.77;;;2.70;;
8337;SDS011;4206;48.634;9.516;2022-08-04T04:22:55;3.13;;;1.97;;
8337;SDS011;4206;48.634;9.516;2022-08-04T04:33:48;6.97;;;1.83;;
8337;SDS011;4206;48.634;9.516;2022-08-04T04:41:43;4.70;;;1.70;;
8337;SDS011;4206;48.634;9.516;2022-08-04T04:49:45;5.80;;;2.30;;
8337;SDS011;4206;48.634;9.516;2022-08-04T04:57:28;5.47;;;2.40;;
8337;SDS011;4206;48.634;9.516;2022-08-04T05:00:02;5.70;;;2.07;;
8337;SDS011;4206;48.634;9.516;2022-08-04T05:15:43;2.53;;;2.30;;
8337;SDS011;4206;48.634;9.516;2022-08-04T05:18:13;4.40;;;2.80;;
8337;SDS011;4206;48.634;9.516;2022-08-04T05:20:47;4.17;;;2.37;;
8337;SDS011;4206;48.634;9.516;2022-08-04T05:23:18;3.73;;;2.67;;
8337;SDS011;4206;48.634;9.516;2022-08-04T05:25:51;5.00;;;2.93;;
8337;SDS011;4206;48.634;9.516;2022-08-04T05:28:23;3.57;;;2.37;;
8337;SDS011;4206;48.634;9.516;2022-08-04T05:30:56;2.53;;;2.33;;
8337;SDS011;4206;48.634;9.516;2022-08-04T05:33:26;5.33;;;2.73;;
8337;SDS011;4206;48.634;9.516;2022-08-04T05:36:04;4.97;;;2.83;;
8337;SDS011;4206;48.634;9.516;2022-08-04T05:38:34;4.73;;;2.30;;
8337;SDS011;4206;48.634;9.516;2022-08-04T05:41:03;2.73;;;2.13;;
8337;SDS011;4206;48.634;9.516;2022-08-04T05:43:32;4.40;;;2.27;;
8337;SDS011;4206;48.634;9.516;2022-08-04T05:46:00;4.70;;;2.43;;
8337;SDS011;4206;48.634;9.516;2022-08-04T05:48:26;8.80;;;2.73;;
8337;SDS011;4206;48.634;9.516;2022-08-04T05:50:53;2.43;;;2.03;;
8337;SDS011;4206;48.634;9.516;2022-08-04T05:53:21;4.50;;;2.43;;
8337;SDS011;4206;48.634;9.516;2022-08-04T05:55:47;3.30;;;2.70;;
8337;SDS011;4206;48.634;9.516;2022-08-04T05:58:15;3.57;;;2.20;;
8337;SDS011;4206;48.634;9.516;2022-08-04T06:00:42;1.90;;;1.80;;
8337;SDS011;4206;48.634;9.516;2022-08-04T06:03:09;2.40;;;2.10;;
8337;SDS011;4206;48.634;9.516;2022-08-04T06:05:35;7.30;;;2.47;;
8337;SDS011;4206;48.634;9.516;2022-08-04T06:08:02;6.40;;;2.50;;
8337;SDS011;4206;48.634;9.516;2022-08-04T06:10:28;2.70;;;2.13;;
8337;SDS011;4206;48.634;9.516;2022-08-04T06:13:00;3.70;;;1.80;;
8337;SDS011;4206;48.634;9.516;2022-08-04T06:15:29;3.83;;;1.77;;
8337;SDS011;4206;48.634;9.516;2022-08-04T06:17:57;7.87;;;2.43;;
8337;SDS011;4206;48.634;9.516;2022-08-04T06:20:29;2.90;;;1.93;;
8337;SDS011;4206;48.634;9.516;2022-08-04T06:22:58;4.17;;;2.20;;
8337;SDS011;4206;48.634;9.516;2022-08-04T06:25:30;2.73;;;2.00;;
8337;SDS011;4206;48.634;9.516;2022-08-04T06:27:58;4.63;;;2.20;;
8337;SDS011;4206;48.634;9.516;2022-08-04T06:30:25;2.90;;;1.97;;
8337;SDS011;4206;48.634;9.516;2022-08-04T06:32:54;2.63;;;1.90;;
8337;SDS011;4206;48.634;9.516;2022-08-04T06:35:22;3.50;;;1.83;;
8337;SDS011;4206;48.634;9.516;2022-08-04T06:37:49;2.67;;;2.00;;
8337;SDS011;4206;48.634;9.516;2022-08-04T06:40:17;2.30;;;1.83;;
8337;SDS011;4206;48.634;9.516;2022-08-04T06:42:44;1.40;;;1.30;;
8337;SDS011;4206;48.634;9.516;2022-08-04T06:45:11;3.10;;;1.60;;
8337;SDS011;4206;48.634;9.516;2022-08-04T06:47:38;1.80;;;1.43;;
8337;SDS011;4206;48.634;9.516;2022-08-04T06:50:07;2.60;;;1.67;;
8337;SDS011;4206;48.634;9.516;2022-08-04T06:52:35;2.07;;;1.70;;
8337;SDS011;4206;48.634;9.516;2022-08-04T06:55:02;2.60;;;1.53;;
8337;SDS011;4206;48.634;9.516;2022-08-04T06:57:29;2.03;;;1.83;;
8337;SDS011;4206;48.634;9.516;2022-08-04T07:00:03;4.43;;;1.60;;
8337;SDS011;4206;48.634;9.516;2022-08-04T07:02:37;2.40;;;1.50;;
8337;SDS011;4206;48.634;9.516;2022-08-04T07:05:09;1.90;;;1.70;;
8337;SDS011;4206;48.634;9.516;2022-08-04T07:07:42;2.40;;;1.80;;
8337;SDS011;4206;48.634;9.516;2022-08-04T07:10:09;1.77;;;1.60;;
8337;SDS011;4206;48.634;9.516;2022-08-04T07:12:36;2.37;;;2.17;;
8337;SDS011;4206;48.634;9.516;2022-08-04T07:15:03;2.63;;;1.40;;
8337;SDS011;4206;48.634;9.516;2022-08-04T07:17:29;2.70;;;1.83;;
8337;SDS011;4206;48.634;9.516;2022-08-04T07:19:56;1.90;;;1.73;;
8337;SDS011;4206;48.634;9.516;2022-08-04T07:22:26;4.40;;;1.80;;
8337;SDS011;4206;48.634;9.516;2022-08-04T07:24:54;2.20;;;1.40;;
8337;SDS011;4206;48.634;9.516;2022-08-04T07:27:21;1.97;;;1.40;;
8337;SDS011;4206;48.634;9.516;2022-08-04T07:29:47;3.60;;;1.67;;
8337;SDS011;4206;48.634;9.516;2022-08-04T07:32:13;2.23;;;1.60;;
8337;SDS011;4206;48.634;9.516;2022-08-04T07:34:41;3.73;;;1.50;;
8337;SDS011;4206;48.634;9.516;2022-08-04T07:37:07;2.23;;;1.50;;
8337;SDS011;4206;48.634;9.516;2022-08-04T07:39:33;4.30;;;1.43;;
8337;SDS011;4206;48.634;9.516;2022-08-04T07:42:01;3.97;;;1.27;;
8337;SDS011;4206;48.634;9.516;2022-08-04T07:44:29;6.50;;;1.60;;
8337;SDS011;4206;48.634;9.516;2022-08-04T07:46:57;2.03;;;1.60;;
8337;SDS011;4206;48.634;9.516;2022-08-04T07:49:24;2.90;;;1.70;;
8337;SDS011;4206;48.634;9.516;2022-08-04T07:51:50;3.83;;;1.40;;
8337;SDS011;4206;48.634;9.516;2022-08-04T07:54:17;1.60;;;1.50;;
8337;SDS011;4206;48.634;9.516;2022-08-04T07:56:44;3.50;;;1.60;;
8337;SDS011;4206;48.634;9.516;2022-08-04T07:59:13;3.20;;;1.33;;
8337;SDS011;4206;48.634;9.516;2022-08-04T08:01:39;2.07;;;1.40;;
8337;SDS011;4206;48.634;9.516;2022-08-04T08:04:05;2.47;;;1.33;;
8337;SDS011;4206;48.634;9.516;2022-08-04T08:06:34;3.55;;;1.52;;
8337;SDS011;4206;48.634;9.516;2022-08-04T08:09:06;4.50;;;1.52;;
8337;SDS011;4206;48.634;9.516;2022-08-04T08:11:33;2.08;;;1.65;;
8337;SDS011;4206;48.634;9.516;2022-08-04T08:13:59;3.08;;;1.90;;
8337;SDS011;4206;48.634;9.516;2022-08-04T08:16:25;2.42;;;1.23;;
8337;SDS011;4206;48.634;9.516;2022-08-04T08:18:52;1.50;;;1.30;;
8337;SDS011;4206;48.634;9.516;2022-08-04T08:21:20;4.07;;;1.52;;
8337;SDS011;4206;48.634;9.516;2022-08-04T08:23:46;2.10;;;1.55;;
8337;SDS011;4206;48.634;9.516;2022-08-04T08:26:13;1.65;;;1.55;;
8337;SDS011;4206;48.634;9.516;2022-08-04T08:28:39;1.63;;;1.25;;
8337;SDS011;4206;48.634;9.516;2022-08-04T08:31:04;1.95;;;1.63;;
8337;SDS011;4206;48.634;9.516;2022-08-04T08:33:30;6.20;;;1.73;;
8337;SDS011;4206;48.634;9.516;2022-08-04T08:38:42;4.50;;;2.03;;
8337;SDS011;4206;48.634;9.516;2022-08-04T08:52:03;1.70;;;1.60;;
8337;SDS011;4206;48.634;9.516;2022-08-04T08:54:52;2.50;;;2.17;;
8337;SDS011;4206;48.634;9.516;2022-08-04T08:57:32;5.82;;;1.58;;
8337;SDS011;4206;48.634;9.516;2022-08-04T09:00:06;3.50;;;1.80;;
8337;SDS011;4206;48.634;9.516;2022-08-04T09:13:37;2.42;;;1.48;;
8337;SDS011;4206;48.634;9.516;2022-08-04T09:18:46;2.20;;;2.10;;
8337;SDS011;4206;48.634;9.516;2022-08-04T09:23:45;5.22;;;1.75;;
8337;SDS011;4206;48.634;9.516;2022-08-04T09:26:18;3.08;;;2.00;;
8337;SDS011;4206;48.634;9.516;2022-08-04T09:28:48;3.55;;;1.98;;
8337;SDS011;4206;48.634;9.516;2022-08-04T09:31:19;4.97;;;1.80;;
8337;SDS011;4206;48.634;9.516;2022-08-04T09:33:49;3.25;;;2.08;;
8337;SDS011;4206;48.634;9.516;2022-08-04T09:41:36;5.90;;;2.45;;
8337;SDS011;4206;48.634;9.516;2022-08-04T09:44:14;3.60;;;2.35;;
8337;SDS011;4206;48.634;9.516;2022-08-04T09:46:45;2.10;;;2.00;;
8337;SDS011;4206;48.634;9.516;2022-08-04T09:49:18;2.05;;;1.88;;
8337;SDS011;4206;48.634;9.516;2022-08-04T09:54:32;4.60;;;2.33;;
8337;SDS011;4206;48.634;9.516;2022-08-04T09:57:07;2.65;;;1.73;;
8337;SDS011;4206;48.634;9.516;2022-08-04T10:02:20;3.05;;;1.75;;
8337;SDS011;4206;48.634;9.516;2022-08-04T10:04:48;10.85;;;8.38;;
8337;SDS011;4206;48.634;9.516;2022-08-04T10:07:18;5.55;;;2.25;;
8337;SDS011;4206;48.634;9.516;2022-08-04T10:12:37;1.92;;;1.83;;
8337;SDS011;4206;48.634;9.516;2022-08-04T10:15:12;1.85;;;1.75;;
8337;SDS011;4206;48.634;9.516;2022-08-04T10:22:53;2.15;;;1.95;;
8337;SDS011;4206;48.634;9.516;2022-08-04T10:25:33;2.50;;;2.30;;
8337;SDS011;4206;48.634;9.516;2022-08-04T10:28:02;2.42;;;2.33;;
8337;SDS011;4206;48.634;9.516;2022-08-04T10:30:29;2.28;;;1.90;;
8337;SDS011;4206;48.634;9.516;2022-08-04T10:33:01;5.93;;;2.13;;
8337;SDS011;4206;48.634;9.516;2022-08-04T10:35:32;3.65;;;2.25;;
8337;SDS011;4206;48.634;9.516;2022-08-04T10:40:42;3.25;;;2.40;;
8337;SDS011;4206;48.634;9.516;2022-08-04T10:45:40;5.60;;;2.33;;
8337;SDS011;4206;48.634;9.516;2022-08-04T10:51:41;4.78;;;2.40;;
8337;SDS011;4206;48.634;9.516;2022-08-04T10:54:07;3.25;;;3.05;;
8337;SDS011;4206;48.634;9.516;2022-08-04T10:56:39;2.80;;;2.63;;
8337;SDS011;4206;48.634;9.516;2022-08-04T10:59:10;5.03;;;3.33;;
8337;SDS011;4206;48.634;9.516;2022-08-04T11:01:39;3.45;;;3.25;;
8337;SDS011;4206;48.634;9.516;2022-08-04T11:04:20;4.72;;;3.70;;
8337;SDS011;4206;48.634;9.516;2022-08-04T11:06:50;7.00;;;4.55;;
8337;SDS011;4206;48.634;9.516;2022-08-04T11:09:17;4.05;;;3.78;;
8337;SDS011;4206;48.634;9.516;2022-08-04T11:11:44;4.15;;;3.75;;
8337;SDS011;4206;48.634;9.516;2022-08-04T11:14:16;5.07;;;4.78;;
8337;SDS011;4206;48.634;9.516;2022-08-04T11:16:45;2.88;;;2.78;;
8337;SDS011;4206;48.634;9.516;2022-08-04T11:19:18;3.45;;;3.25;;
8337;SDS011;4206;48.634;9.516;2022-08-04T11:27:24;3.92;;;3.42;;
8337;SDS011;4206;48.634;9.516;2022-08-04T11:30:00;3.50;;;3.20;;
8337;SDS011;4206;48.634;9.516;2022-08-04T11:33:04;2.88;;;2.67;;
8337;SDS011;4206;48.634;9.516;2022-08-04T11:35:20;2.80;;;2.60;;
8337;SDS011;4206;48.634;9.516;2022-08-04T11:37:59;2.78;;;2.17;;
8337;SDS011;4206;48.634;9.516;2022-08-04T11:40:35;2.50;;;2.40;;
8337;SDS011;4206;48.634;9.516;2022-08-04T11:43:07;3.28;;;3.03;;
8337;SDS011;4206;48.634;9.516;2022-08-04T11:45:40;3.10;;;3.00;;
8337;SDS011;4206;48.634;9.516;2022-08-04T11:48:16;4.53;;;4.03;;
8337;SDS011;4206;48.634;9.516;2022-08-04T11:50:49;3.58;;;3.38;;
8337;SDS011;4206;48.634;9.516;2022-08-04T11:53:18;3.25;;;3.05;;
8337;SDS011;4206;48.634;9.516;2022-08-04T11:55:48;2.60;;;2.50;;
8337;SDS011;4206;48.634;9.516;2022-08-04T11:58:17;3.08;;;2.88;;
8337;SDS011;4206;48.634;9.516;2022-08-04T12:00:50;2.53;;;2.33;;
8337;SDS011;4206;48.634;9.516;2022-08-04T12:09:17;3.00;;;2.88;;
8337;SDS011;4206;48.634;9.516;2022-08-04T12:17:56;2.72;;;2.40;;
8337;SDS011;4206;48.634;9.516;2022-08-04T12:20:24;2.70;;;2.60;;
8337;SDS011;4206;48.634;9.516;2022-08-04T12:22:53;3.20;;;3.00;;
8337;SDS011;4206;48.634;9.516;2022-08-04T12:25:22;3.67;;;3.47;;
8337;SDS011;4206;48.634;9.516;2022-08-04T12:27:56;3.92;;;3.67;;
8337;SDS011;4206;48.634;9.516;2022-08-04T12:30:28;3.90;;;3.70;;
8337;SDS011;4206;48.634;9.516;2022-08-04T12:33:03;3.38;;;3.17;;
8337;SDS011;4206;48.634;9.516;2022-08-04T12:35:38;3.88;;;3.60;;
8337;SDS011;4206;48.634;9.516;2022-08-04T12:38:13;3.38;;;3.28;;
8337;SDS011;4206;48.634;9.516;2022-08-04T12:40:44;2.88;;;2.78;;
8337;SDS011;4206;48.634;9.516;2022-08-04T12:43:16;5.10;;;3.70;;
8337;SDS011;4206;48.634;9.516;2022-08-04T12:45:48;3.58;;;3.47;;
8337;SDS011;4206;48.634;9.516;2022-08-04T12:48:17;3.67;;;3.47;;
8337;SDS011;4206;48.634;9.516;2022-08-04T12:50:46;3.55;;;3.08;;
8337;SDS011;4206;48.634;9.516;2022-08-04T12:53:14;3.20;;;3.10;;
8337;SDS011;4206;48.634;9.516;2022-08-04T12:55:44;3.83;;;3.55;;
8337;SDS011;4206;48.634;9.516;2022-08-04T12:58:15;3.90;;;3.70;;
8337;SDS011;4206;48.634;9.516;2022-08-04T13:00:46;3.53;;;3.33;;
8337;SDS011;4206;48.634;9.516;2022-08-04T13:03:20;3.58;;;3.38;;
8337;SDS011;4206;48.634;9.516;2022-08-04T13:05:48;3.65;;;3.40;;
8337;SDS011;4206;48.634;9.516;2022-08-04T13:08:18;5.40;;;3.42;;
8337;SDS011;4206;48.634;9.516;2022-08-04T13:10:46;3.45;;;3.25;;
8337;SDS011;4206;48.634;9.516;2022-08-04T13:13:17;3.40;;;3.20;;
8337;SDS011;4206;48.634;9.516;2022-08-04T13:18:29;3.70;;;3.40;;
8337;SDS011;4206;48.634;9.516;2022-08-04T13:23:42;6.57;;;4.35;;
8337;SDS011;4206;48.634;9.516;2022-08-04T13:26:11;3.95;;;3.65;;
8337;SDS011;4206;48.634;9.516;2022-08-04T13:28:40;5.57;;;4.32;;
8337;SDS011;4206;48.634;9.516;2022-08-04T13:31:12;4.10;;;3.75;;
8337;SDS011;4206;48.634;9.516;2022-08-04T13:33:40;5.07;;;4.78;;
8337;SDS011;4206;48.634;9.516;2022-08-04T13:36:07;4.10;;;3.90;;
8337;SDS011;4206;48.634;9.516;2022-08-04T13:38:35;4.00;;;3.80;;
8337;SDS011;4206;48.634;9.516;2022-08-04T13:41:05;3.50;;;3.30;;
8337;SDS011;4206;48.634;9.516;2022-08-04T13:43:32;3.22;;;3.03;;
8337;SDS011;4206;48.634;9.516;2022-08-04T13:46:05;3.00;;;2.80;;
8337;SDS011;4206;48.634;9.516;2022-08-04T13:48:33;2.28;;;2.17;;
8337;SDS011;4206;48.634;9.516;2022-08-04T13:51:03;2.55;;;2.35;;
8337;SDS011;4206;48.634;9.516;2022-08-04T13:53:32;2.63;;;2.42;;
8337;SDS011;4206;48.634;9.516;2022-08-04T13:55:59;2.30;;;2.20;;
8337;SDS011;4206;48.634;9.516;2022-08-04T13:58:29;2.35;;;2.25;;
8337;SDS011;4206;48.634;9.516;2022-08-04T14:00:59;2.45;;;2.30;;
8337;SDS011;4206;48.634;9.516;2022-08-04T14:03:50;2.65;;;2.45;;
8337;SDS011;4206;48.634;9.516;2022-08-04T14:06:19;2.75;;;2.53;;
8337;SDS011;4206;48.634;9.516;2022-08-04T14:11:16;6.93;;;3.03;;
8337;SDS011;4206;48.634;9.516;2022-08-04T14:13:43;3.03;;;2.83;;
8337;SDS011;4206;48.634;9.516;2022-08-04T14:16:18;2.03;;;1.92;;
8337;SDS011;4206;48.634;9.516;2022-08-04T14:18:45;2.95;;;2.10;;
8337;SDS011;4206;48.634;9.516;2022-08-04T14:21:13;3.45;;;2.10;;
8337;SDS011;4206;48.634;9.516;2022-08-04T14:26:16;2.28;;;2.17;;
8337;SDS011;4206;48.634;9.516;2022-08-04T14:28:45;4.05;;;2.38;;
8337;SDS011;4206;48.634;9.516;2022-08-04T14:31:13;3.38;;;1.83;;
8337;SDS011;4206;48.634;9.516;2022-08-04T14:33:41;2.50;;;2.30;;
8337;SDS011;4206;48.634;9.516;2022-08-04T14:36:09;1.85;;;1.75;;
8337;SDS011;4206;48.634;9.516;2022-08-04T14:41:17;2.00;;;1.90;;
8337;SDS011;4206;48.634;9.516;2022-08-04T14:43:50;2.47;;;2.05;;
8337;SDS011;4206;48.634;9.516;2022-08-04T14:46:19;2.25;;;2.05;;
8337;SDS011;4206;48.634;9.516;2022-08-04T14:51:33;2.35;;;2.15;;
8337;SDS011;4206;48.634;9.516;2022-08-04T14:54:05;3.60;;;2.25;;
8337;SDS011;4206;48.634;9.516;2022-08-04T14:56:32;4.72;;;2.08;;
8337;SDS011;4206;48.634;9.516;2022-08-04T14:59:00;3.15;;;2.00;;
8337;SDS011;4206;48.634;9.516;2022-08-04T15:01:28;2.60;;;2.08;;
8337;SDS011;4206;48.634;9.516;2022-08-04T15:03:54;2.22;;;2.03;;
8337;SDS011;4206;48.634;9.516;2022-08-04T15:06:23;3.58;;;2.10;;
8337;SDS011;4206;48.634;9.516;2022-08-04T15:08:51;1.98;;;1.88;;
8337;SDS011;4206;48.634;9.516;2022-08-04T15:11:19;3.97;;;1.88;;
8337;SDS011;4206;48.634;9.516;2022-08-04T15:13:45;1.77;;;1.67;;
8337;SDS011;4206;48.634;9.516;2022-08-04T15:16:11;2.20;;;2.00;;
8337;SDS011;4206;48.634;9.516;2022-08-04T15:18:37;2.97;;;2.10;;
8337;SDS011;4206;48.634;9.516;2022-08-04T15:21:04;3.20;;;1.90;;
8337;SDS011;4206;48.634;9.516;2022-08-04T15:23:31;1.80;;;1.70;;
8337;SDS011;4206;48.634;9.516;2022-08-04T15:25:58;2.05;;;1.80;;
8337;SDS011;4206;48.634;9.516;2022-08-04T15:28:26;2.50;;;1.88;;
8337;SDS011;4206;48.634;9.516;2022-08-04T15:30:54;4.82;;;1.90;;
8337;SDS011;4206;48.634;9.516;2022-08-04T15:33:20;2.97;;;2.47;;
8337;SDS011;4206;48.634;9.516;2022-08-04T15:35:53;4.18;;;2.10;;
8337;SDS011;4206;48.634;9.516;2022-08-04T15:38:37;1.98;;;1.85;;
8337;SDS011;4206;48.634;9.516;2022-08-04T15:41:08;2.05;;;1.95;;
8337;SDS011;4206;48.634;9.516;2022-08-04T15:43:49;4.28;;;2.28;;
8337;SDS011;4206;48.634;9.516;2022-08-04T15:46:25;1.70;;;1.60;;
8337;SDS011;4206;48.634;9.516;2022-08-04T15:49:22;2.38;;;2.10;;
8337;SDS011;4206;48.634;9.516;2022-08-04T15:54:30;2.35;;;2.00;;
8337;SDS011;4206;48.634;9.516;2022-08-04T15:56:56;2.42;;;2.22;;
8337;SDS011;4206;48.634;9.516;2022-08-04T16:13:02;6.93;;;2.58;;
8337;SDS011;4206;48.634;9.516;2022-08-04T16:15:38;2.38;;;2.20;;
8337;SDS011;4206;48.634;9.516;2022-08-04T16:18:06;2.38;;;2.17;;
8337;SDS011;4206;48.634;9.516;2022-08-04T16:20:33;3.17;;;2.33;;
8337;SDS011;4206;48.634;9.516;2022-08-04T16:23:02;4.05;;;2.30;;
8337;SDS011;4206;48.634;9.516;2022-08-04T16:25:41;2.63;;;2.20;;
8337;SDS011;4206;48.634;9.516;2022-08-04T16:31:09;2.72;;;2.50;;
8337;SDS011;4206;48.634;9.516;2022-08-04T16:33:37;2.63;;;2.42;;
8337;SDS011;4206;48.634;9.516;2022-08-04T16:36:04;2.45;;;2.00;;
8337;SDS011;4206;48.634;9.516;2022-08-04T16:38:50;4.53;;;1.70;;
8337;SDS011;4206;48.634;9.516;2022-08-04T16:46:57;2.97;;;2.30;;
8337;SDS011;4206;48.634;9.516;2022-08-04T16:49:25;2.10;;;1.90;;
8337;SDS011;4206;48.634;9.516;2022-08-04T16:51:52;2.15;;;1.90;;
8337;SDS011;4206;48.634;9.516;2022-08-04T16:54:19;8.60;;;2.42;;
8337;SDS011;4206;48.634;9.516;2022-08-04T16:56:46;2.95;;;2.67;;
8337;SDS011;4206;48.634;9.516;2022-08-04T16:59:12;4.53;;;3.40;;
8337;SDS011;4206;48.634;9.516;2022-08-04T17:01:46;5.00;;;3.13;;
8337;SDS011;4206;48.634;9.516;2022-08-04T17:04:14;4.57;;;3.22;;
8337;SDS011;4206;48.634;9.516;2022-08-04T17:06:41;14.07;;;7.28;;
8337;SDS011;4206;48.634;9.516;2022-08-04T17:09:10;14.73;;;10.63;;
8337;SDS011;4206;48.634;9.516;2022-08-04T17:11:38;9.75;;;8.52;;
8337;SDS011;4206;48.634;9.516;2022-08-04T17:14:05;16.90;;;12.98;;
8337;SDS011;4206;48.634;9.516;2022-08-04T17:16:31;13.07;;;10.18;;
8337;SDS011;4206;48.634;9.516;2022-08-04T17:18:58;9.48;;;6.72;;
8337;SDS011;4206;48.634;9.516;2022-08-04T17:21:26;6.32;;;5.70;;
8337;SDS011;4206;48.634;9.516;2022-08-04T17:23:54;9.43;;;8.18;;
8337;SDS011;4206;48.634;9.516;2022-08-04T17:26:23;10.07;;;5.10;;
8337;SDS011;4206;48.634;9.516;2022-08-04T17:28:51;4.03;;;3.72;;
8337;SDS011;4206;48.634;9.516;2022-08-04T17:31:19;6.57;;;4.68;;
8337;SDS011;4206;48.634;9.516;2022-08-04T17:33:47;6.28;;;2.78;;
8337;SDS011;4206;48.634;9.516;2022-08-04T17:36:14;5.07;;;4.05;;
8337;SDS011;4206;48.634;9.516;2022-08-04T17:38:42;5.88;;;3.10;;
8337;SDS011;4206;48.634;9.516;2022-08-04T17:41:10;5.13;;;2.60;;
8337;SDS011;4206;48.634;9.516;2022-08-04T17:43:46;3.75;;;2.35;;
8337;SDS011;4206;48.634;9.516;2022-08-04T17:48:43;5.03;;;2.53;;
8337;SDS011;4206;48.634;9.516;2022-08-04T17:51:13;4.07;;;2.40;;
8337;SDS011;4206;48.634;9.516;2022-08-04T17:53:40;2.22;;;2.00;;
8337;SDS011;4206;48.634;9.516;2022-08-04T17:56:27;2.25;;;2.05;;
8337;SDS011;4206;48.634;9.516;2022-08-04T18:01:39;2.40;;;2.20;;
8337;SDS011;4206;48.634;9.516;2022-08-04T18:06:50;3.33;;;2.70;;
8337;SDS011;4206;48.634;9.516;2022-08-04T18:09:21;3.25;;;2.70;;
8337;SDS011;4206;48.634;9.516;2022-08-04T18:17:05;2.70;;;2.28;;
8337;SDS011;4206;48.634;9.516;2022-08-04T18:19:31;3.70;;;2.30;;
8337;SDS011;4206;48.634;9.516;2022-08-04T18:21:57;4.43;;;3.40;;
8337;SDS011;4206;48.634;9.516;2022-08-04T18:24:23;2.95;;;2.65;;
8337;SDS011;4206;48.634;9.516;2022-08-04T18:26:48;3.08;;;2.72;;
8337;SDS011;4206;48.634;9.516;2022-08-04T18:29:15;3.08;;;2.70;;
8337;SDS011;4206;48.634;9.516;2022-08-04T18:31:41;5.18;;;2.00;;
8337;SDS011;4206;48.634;9.516;2022-08-04T18:34:07;3.78;;;2.90;;
8337;SDS011;4206;48.634;9.516;2022-08-04T18:36:34;3.85;;;2.67;;
8337;SDS011;4206;48.634;9.516;2022-08-04T18:39:02;3.83;;;2.47;;
8337;SDS011;4206;48.634;9.516;2022-08-04T18:41:28;7.07;;;2.92;;
8337;SDS011;4206;48.634;9.516;2022-08-04T18:43:55;6.43;;;2.72;;
8337;SDS011;4206;48.634;9.516;2022-08-04T18:46:21;9.40;;;3.17;;
8337;SDS011;4206;48.634;9.516;2022-08-04T18:48:47;7.72;;;2.38;;
8337;SDS011;4206;48.634;9.516;2022-08-04T18:51:13;2.80;;;2.60;;
8337;SDS011;4206;48.634;9.516;2022-08-04T18:53:40;2.72;;;2.53;;
8337;SDS011;4206;48.634;9.516;2022-08-04T18:56:06;4.35;;;3.25;;
8337;SDS011;4206;48.634;9.516;2022-08-04T18:58:32;4.75;;;3.00;;
8337;SDS011;4206;48.634;9.516;2022-08-04T19:00:58;8.05;;;3.40;;
8337;SDS011;4206;48.634;9.516;2022-08-04T19:03:24;4.28;;;2.90;;
8337;SDS011;4206;48.634;9.516;2022-08-04T19:05:50;4.82;;;2.88;;
8337;SDS011;4206;48.634;9.516;2022-08-04T19:08:17;5.13;;;2.67;;
8337;SDS011;4206;48.634;9.516;2022-08-04T19:10:44;8.43;;;2.83;;
8337;SDS011;4206;48.634;9.516;2022-08-04T19:13:10;6.20;;;2.70;;
8337;SDS011;4206;48.634;9.516;2022-08-04T19:15:36;6.53;;;2.92;;
8337;SDS011;4206;48.634;9.516;2022-08-04T19:18:02;3.67;;;2.92;;
8337;SDS011;4206;48.634;9.516;2022-08-04T19:20:28;7.10;;;3.10;;
8337;SDS011;4206;48.634;9.516;2022-08-04T19:22:54;5.10;;;2.90;;
8337;SDS011;4206;48.634;9.516;2022-08-04T19:25:21;6.40;;;3.67;;
8337;SDS011;4206;48.634;9.516;2022-08-04T19:27:47;6.03;;;2.80;;
8337;SDS011;4206;48.634;9.516;2022-08-04T19:30:13;5.97;;;3.00;;
8337;SDS011;4206;48.634;9.516;2022-08-04T19:32:39;2.63;;;2.42;;
8337;SDS011;4206;48.634;9.516;2022-08-04T19:35:05;2.67;;;2.42;;
8337;SDS011;4206;48.634;9.516;2022-08-04T19:37:31;3.60;;;2.93;;
8337;SDS011;4206;48.634;9.516;2022-08-04T19:39:57;3.43;;;2.40;;
8337;SDS011;4206;48.634;9.516;2022-08-04T19:42:23;2.83;;;2.57;;
8337;SDS011;4206;48.634;9.516;2022-08-04T19:44:49;8.20;;;2.63;;
8337;SDS011;4206;48.634;9.516;2022-08-04T19:47:15;8.13;;;2.40;;
8337;SDS011;4206;48.634;9.516;2022-08-04T19:49:41;3.77;;;2.47;;
8337;SDS011;4206;48.634;9.516;2022-08-04T19:52:07;5.80;;;2.60;;
8337;SDS011;4206;48.634;9.516;2022-08-04T19:54:33;3.10;;;2.67;;
8337;SDS011;4206;48.634;9.516;2022-08-04T19:56:59;4.20;;;2.60;;
8337;SDS011;4206;48.634;9.516;2022-08-04T19:59:25;3.13;;;2.70;;
8337;SDS011;4206;48.634;9.516;2022-08-04T20:01:54;3.73;;;2.70;;
8337;SDS011;4206;48.634;9.516;2022-08-04T20:04:20;2.60;;;2.40;;
8337;SDS011;4206;48.634;9.516;2022-08-04T20:06:49;6.80;;;2.80;;
8337;SDS011;4206;48.634;9.516;2022-08-04T20:09:17;2.60;;;2.33;;
8337;SDS011;4206;48.634;9.516;2022-08-04T20:11:43;6.73;;;2.97;;